Time,TemperatureF,DewpointF,PressureIn,WindDirection,WindDirectionDegrees,WindSpeedMPH,WindSpeedGustMPH,Humidity,HourlyPrecipIn,Conditions,Clouds,dailyrainin,SoftwareType,DateUTC
2013-07-09 00:00:00,70.6,69.4,30.07,SSE,160,0.0,0.0,96,0.00,,,0.00,Wunderground v.1.15,2013-07-09 04:00:00,
2013-07-09 00:06:00,70.5,69.6,30.07,SSE,160,0.0,0.0,97,0.00,,,0.00,Wunderground v.1.15,2013-07-09 04:06:00,
2013-07-09 00:15:00,70.3,69.4,30.08,SSE,160,0.0,0.0,97,0.00,,,0.00,Wunderground v.1.15,2013-07-09 04:15:00,
2013-07-09 00:20:00,70.3,69.4,30.08,SSE,160,0.0,0.0,97,0.00,,,0.00,Wunderground v.1.15,2013-07-09 04:20:00,
2013-07-09 00:25:00,70.3,69.4,30.08,SSE,160,0.0,0.0,97,0.00,,,0.00,Wunderground v.1.15,2013-07-09 04:25:00,
2013-07-09 00:30:00,70.2,69.3,30.08,SSE,160,0.0,0.0,97,0.00,,,0.00,Wunderground v.1.15,2013-07-09 04:30:00,
2013-07-09 00:35:00,70.2,69.3,30.08,SSE,160,0.0,0.0,97,0.00,,,0.00,Wunderground v.1.15,2013-07-09 04:35:00,
2013-07-09 00:40:00,70.1,69.2,30.08,SSE,160,0.0,0.0,97,0.00,,,0.00,Wunderground v.1.15,2013-07-09 04:40:00,
2013-07-09 00:45:00,70.1,69.2,30.08,SSE,160,0.0,0.0,97,0.00,,,0.00,Wunderground v.1.15,2013-07-09 04:45:00,
2013-07-09 00:50:00,70.0,69.1,30.08,SSE,160,0.0,0.0,97,0.00,,,0.00,Wunderground v.1.15,2013-07-09 04:50:00,
2013-07-09 00:55:00,70.0,69.1,30.07,SSE,160,0.0,0.0,97,0.00,,,0.00,Wunderground v.1.15,2013-07-09 04:55:00,
2013-07-09 01:00:00,70.0,69.1,30.07,SSE,160,0.0,0.0,97,0.00,,,0.00,Wunderground v.1.15,2013-07-09 05:00:00,
2013-07-09 01:05:00,69.9,69.0,30.07,SSE,160,0.0,0.0,97,0.00,,,0.00,Wunderground v.1.15,2013-07-09 05:05:00,
2013-07-09 01:15:00,69.8,68.9,30.07,SSE,160,0.0,0.0,97,0.00,,,0.00,Wunderground v.1.15,2013-07-09 05:15:00,
2013-07-09 01:20:00,69.7,68.8,30.07,SSE,160,0.0,0.0,97,0.00,,,0.00,Wunderground v.1.15,2013-07-09 05:20:00,
2013-07-09 01:25:00,69.7,68.8,30.06,SSE,160,0.0,0.0,97,0.00,,,0.00,Wunderground v.1.15,2013-07-09 05:25:00,
2013-07-09 01:30:00,69.7,68.8,30.07,SSE,160,0.0,0.0,97,0.00,,,0.00,Wunderground v.1.15,2013-07-09 05:30:00,
2013-07-09 01:35:00,69.7,69.1,30.07,SSE,160,0.0,0.0,98,0.00,,,0.00,Wunderground v.1.15,2013-07-09 05:35:00,
2013-07-09 01:40:00,69.8,69.2,30.07,SSE,160,0.0,0.0,98,0.00,,,0.00,Wunderground v.1.15,2013-07-09 05:40:00,
2013-07-09 01:45:00,69.7,69.1,30.07,SSE,160,0.0,0.0,98,0.00,,,0.00,Wunderground v.1.15,2013-07-09 05:45:00,
2013-07-09 01:50:00,69.7,69.1,30.07,SSE,160,0.0,0.0,98,0.00,,,0.00,Wunderground v.1.15,2013-07-09 05:50:00,
2013-07-09 01:55:00,69.7,68.8,30.07,SSE,160,0.0,0.0,97,0.00,,,0.00,Wunderground v.1.15,2013-07-09 05:55:00,
2013-07-09 02:00:00,69.6,68.7,30.07,SSE,160,0.0,0.0,97,0.00,,,0.00,Wunderground v.1.15,2013-07-09 06:00:00,
2013-07-09 02:06:00,69.6,68.7,30.07,SSE,160,0.0,0.0,97,0.00,,,0.00,Wunderground v.1.15,2013-07-09 06:06:00,
2013-07-09 02:15:00,69.5,68.9,30.07,SSE,160,0.0,0.0,98,0.00,,,0.00,Wunderground v.1.15,2013-07-09 06:15:00,
2013-07-09 02:20:00,69.5,68.9,30.07,SSE,160,0.0,0.0,98,0.00,,,0.00,Wunderground v.1.15,2013-07-09 06:20:00,
2013-07-09 02:25:00,69.4,68.8,30.07,SSE,160,0.0,0.0,98,0.00,,,0.00,Wunderground v.1.15,2013-07-09 06:25:00,
2013-07-09 02:30:00,69.4,68.8,30.06,SSE,160,0.0,0.0,98,0.00,,,0.00,Wunderground v.1.15,2013-07-09 06:30:00,
2013-07-09 02:35:00,69.4,68.8,30.06,SSE,160,0.0,0.0,98,0.00,,,0.00,Wunderground v.1.15,2013-07-09 06:35:00,
2013-07-09 02:40:00,69.4,68.8,30.05,SSE,160,0.0,0.0,98,0.00,,,0.00,Wunderground v.1.15,2013-07-09 06:40:00,
2013-07-09 02:45:00,69.3,68.7,30.05,SSE,160,0.0,0.0,98,0.00,,,0.00,Wunderground v.1.15,2013-07-09 06:45:00,
2013-07-09 02:50:00,69.3,68.7,30.04,SSE,160,0.0,0.0,98,0.00,,,0.00,Wunderground v.1.15,2013-07-09 06:50:00,
2013-07-09 02:55:00,69.2,68.6,30.04,SSE,160,0.0,0.0,98,0.00,,,0.00,Wunderground v.1.15,2013-07-09 06:55:00,
2013-07-09 03:00:00,69.1,68.5,30.04,SSE,160,0.0,0.0,98,0.00,,,0.00,Wunderground v.1.15,2013-07-09 07:00:00,
2013-07-09 03:05:00,69.0,68.4,30.04,SSE,160,0.0,0.0,98,0.00,,,0.00,Wunderground v.1.15,2013-07-09 07:05:00,
2013-07-09 03:10:00,69.0,68.4,30.04,SSE,160,0.0,0.0,98,0.00,,,0.00,Wunderground v.1.15,2013-07-09 07:10:00,
2013-07-09 03:15:00,68.9,68.3,30.04,SSE,160,0.0,0.0,98,0.00,,,0.00,Wunderground v.1.15,2013-07-09 07:15:00,
2013-07-09 03:20:00,68.8,68.2,30.05,SSE,159,0.0,0.0,98,0.00,,,0.00,Wunderground v.1.15,2013-07-09 07:20:00,
2013-07-09 03:25:00,68.8,68.2,30.05,SSE,159,0.0,0.0,98,0.00,,,0.00,Wunderground v.1.15,2013-07-09 07:25:00,
2013-07-09 03:30:00,68.7,68.1,30.05,SSE,159,0.0,0.0,98,0.00,,,0.00,Wunderground v.1.15,2013-07-09 07:30:00,
2013-07-09 03:35:00,68.6,68.0,30.05,SSE,159,0.0,0.0,98,0.00,,,0.00,Wunderground v.1.15,2013-07-09 07:35:00,
2013-07-09 03:40:00,68.4,67.8,30.05,SSE,159,0.0,0.0,98,0.00,,,0.00,Wunderground v.1.15,2013-07-09 07:40:00,
2013-07-09 03:45:00,68.2,67.3,30.05,SSE,159,0.0,0.0,97,0.00,,,0.00,Wunderground v.1.15,2013-07-09 07:45:00,
2013-07-09 03:55:00,68.1,67.5,30.05,SSE,159,0.0,0.0,98,0.00,,,0.00,Wunderground v.1.15,2013-07-09 07:55:00,
2013-07-09 04:00:00,68.0,67.4,30.05,SSE,159,0.0,0.0,98,0.00,,,0.00,Wunderground v.1.15,2013-07-09 08:00:00,
2013-07-09 04:05:00,67.9,67.3,30.05,SSE,159,0.0,0.0,98,0.00,,,0.00,Wunderground v.1.15,2013-07-09 08:05:00,
2013-07-09 04:15:00,67.7,67.1,30.05,SSE,159,0.0,0.0,98,0.00,,,0.00,Wunderground v.1.15,2013-07-09 08:15:00,
2013-07-09 04:20:00,67.6,67.0,30.05,SSE,159,0.0,0.0,98,0.00,,,0.00,Wunderground v.1.15,2013-07-09 08:20:00,
2013-07-09 04:25:00,67.5,66.9,30.05,SSE,159,0.0,0.0,98,0.00,,,0.00,Wunderground v.1.15,2013-07-09 08:25:00,
2013-07-09 04:30:00,67.4,66.8,30.06,SSE,159,0.0,0.0,98,0.00,,,0.00,Wunderground v.1.15,2013-07-09 08:30:00,
2013-07-09 04:35:00,67.4,66.8,30.06,SSE,159,0.0,0.0,98,0.00,,,0.00,Wunderground v.1.15,2013-07-09 08:35:00,
2013-07-09 04:40:00,67.4,66.8,30.06,SSE,159,0.0,0.0,98,0.00,,,0.00,Wunderground v.1.15,2013-07-09 08:40:00,
2013-07-09 04:45:00,67.3,66.7,30.05,SSE,159,0.0,0.0,98,0.00,,,0.00,Wunderground v.1.15,2013-07-09 08:45:00,
2013-07-09 04:50:00,67.3,66.7,30.05,SSE,159,0.0,0.0,98,0.00,,,0.00,Wunderground v.1.15,2013-07-09 08:50:00,
2013-07-09 04:55:00,67.3,66.7,30.05,SSE,159,0.0,0.0,98,0.00,,,0.00,Wunderground v.1.15,2013-07-09 08:55:00,
2013-07-09 05:00:00,67.2,66.6,30.05,SSE,159,0.0,0.0,98,0.00,,,0.00,Wunderground v.1.15,2013-07-09 09:00:00,
2013-07-09 05:06:00,67.1,66.5,30.05,SSE,159,0.0,0.0,98,0.00,,,0.00,Wunderground v.1.15,2013-07-09 09:06:00,
2013-07-09 05:10:00,67.0,66.4,30.05,SSE,159,0.0,0.0,98,0.00,,,0.00,Wunderground v.1.15,2013-07-09 09:10:00,
2013-07-09 05:15:00,67.0,66.4,30.06,SSE,159,0.0,0.0,98,0.00,,,0.00,Wunderground v.1.15,2013-07-09 09:15:00,
2013-07-09 05:20:00,67.0,66.4,30.06,SSE,159,0.0,0.0,98,0.00,,,0.00,Wunderground v.1.15,2013-07-09 09:20:00,
2013-07-09 05:25:00,67.0,66.4,30.05,SSE,159,0.0,0.0,98,0.00,,,0.00,Wunderground v.1.15,2013-07-09 09:25:00,
2013-07-09 05:30:00,67.0,66.4,30.05,SSE,159,0.0,0.0,98,0.00,,,0.00,Wunderground v.1.15,2013-07-09 09:30:00,
2013-07-09 05:35:00,67.0,66.4,30.05,SSE,159,0.0,0.0,98,0.00,,,0.00,Wunderground v.1.15,2013-07-09 09:35:00,
2013-07-09 05:40:00,66.8,66.2,30.05,SSE,159,0.0,0.0,98,0.00,,,0.00,Wunderground v.1.15,2013-07-09 09:40:00,
2013-07-09 05:45:00,66.7,66.1,30.05,SSE,159,0.0,0.0,98,0.00,,,0.00,Wunderground v.1.15,2013-07-09 09:45:00,
2013-07-09 05:50:00,66.7,66.1,30.05,SSE,159,0.0,0.0,98,0.00,,,0.00,Wunderground v.1.15,2013-07-09 09:50:00,
2013-07-09 05:55:00,66.6,66.0,30.05,SSE,159,0.0,0.0,98,0.00,,,0.00,Wunderground v.1.15,2013-07-09 09:55:00,
2013-07-09 06:05:00,66.4,65.8,30.05,SSE,159,0.0,0.0,98,0.00,,,0.00,Wunderground v.1.15,2013-07-09 10:05:00,
2013-07-09 06:10:00,66.5,65.9,30.05,SSE,159,0.0,0.0,98,0.00,,,0.00,Wunderground v.1.15,2013-07-09 10:10:00,
2013-07-09 06:15:00,66.4,65.8,30.05,SSE,159,0.0,0.0,98,0.00,,,0.00,Wunderground v.1.15,2013-07-09 10:15:00,
2013-07-09 06:20:00,66.2,65.6,30.05,SSE,159,0.0,0.0,98,0.00,,,0.00,Wunderground v.1.15,2013-07-09 10:20:00,
2013-07-09 06:25:00,66.1,65.5,30.05,SSE,159,0.0,0.0,98,0.00,,,0.00,Wunderground v.1.15,2013-07-09 10:25:00,
2013-07-09 06:30:00,66.1,65.5,30.05,SSE,159,0.0,0.0,98,0.00,,,0.00,Wunderground v.1.15,2013-07-09 10:30:00,
2013-07-09 06:35:00,66.1,65.5,30.05,SSE,159,0.0,0.0,98,0.00,,,0.00,Wunderground v.1.15,2013-07-09 10:35:00,
2013-07-09 06:40:00,66.1,65.5,30.06,SSE,159,0.0,0.0,98,0.00,,,0.00,Wunderground v.1.15,2013-07-09 10:40:00,
2013-07-09 06:45:00,66.1,65.5,30.06,SSE,159,0.0,0.0,98,0.00,,,0.00,Wunderground v.1.15,2013-07-09 10:45:00,
2013-07-09 06:50:00,66.1,65.5,30.06,SSE,159,0.0,0.0,98,0.00,,,0.00,Wunderground v.1.15,2013-07-09 10:50:00,
2013-07-09 06:55:00,66.1,65.5,30.06,SSE,159,0.0,0.0,98,0.00,,,0.00,Wunderground v.1.15,2013-07-09 10:55:00,
2013-07-09 07:00:00,66.1,65.5,30.06,SSE,159,0.0,0.0,98,0.00,,,0.00,Wunderground v.1.15,2013-07-09 11:00:00,
2013-07-09 07:06:00,66.2,65.6,30.06,SSE,159,0.0,0.0,98,0.00,,,0.00,Wunderground v.1.15,2013-07-09 11:06:00,
2013-07-09 07:10:00,66.3,66.0,30.06,SSE,159,0.0,0.0,99,0.00,,,0.00,Wunderground v.1.15,2013-07-09 11:10:00,
2013-07-09 07:15:00,66.3,66.0,30.06,SSE,159,0.0,0.0,99,0.00,,,0.00,Wunderground v.1.15,2013-07-09 11:15:00,
2013-07-09 07:20:00,66.3,66.0,30.06,SSE,159,0.0,0.0,99,0.00,,,0.00,Wunderground v.1.15,2013-07-09 11:20:00,
2013-07-09 07:25:00,66.4,65.8,30.06,SSE,159,0.0,0.0,98,0.00,,,0.00,Wunderground v.1.15,2013-07-09 11:25:00,
2013-07-09 07:30:00,66.5,66.2,30.06,SSE,159,0.0,0.0,99,0.00,,,0.00,Wunderground v.1.15,2013-07-09 11:30:00,
2013-07-09 07:35:00,66.7,66.4,30.07,SSE,159,0.0,0.0,99,0.00,,,0.00,Wunderground v.1.15,2013-07-09 11:35:00,
2013-07-09 07:40:00,66.8,66.5,30.07,SSE,159,0.0,0.0,99,0.00,,,0.00,Wunderground v.1.15,2013-07-09 11:40:00,
2013-07-09 07:45:00,67.1,66.8,30.07,SSE,159,0.0,0.0,99,0.00,,,0.00,Wunderground v.1.15,2013-07-09 11:45:00,
2013-07-09 07:55:00,67.5,67.2,30.07,SSE,159,0.0,0.0,99,0.00,,,0.00,Wunderground v.1.15,2013-07-09 11:55:00,
2013-07-09 08:00:00,67.7,67.4,30.07,SSE,159,0.0,0.0,99,0.00,,,0.00,Wunderground v.1.15,2013-07-09 12:00:00,
2013-07-09 08:06:00,67.7,67.4,30.07,SSE,159,0.0,0.0,99,0.00,,,0.00,Wunderground v.1.15,2013-07-09 12:06:00,
2013-07-09 08:15:00,67.9,67.6,30.07,SSE,159,0.0,0.0,99,0.00,,,0.00,Wunderground v.1.15,2013-07-09 12:15:00,
2013-07-09 08:20:00,68.0,67.7,30.07,SSE,159,0.0,0.0,99,0.00,,,0.00,Wunderground v.1.15,2013-07-09 12:20:00,
2013-07-09 08:25:00,68.3,68.0,30.08,SSE,159,0.0,0.0,99,0.00,,,0.00,Wunderground v.1.15,2013-07-09 12:25:00,
2013-07-09 08:30:00,68.6,68.3,30.08,SSE,159,0.0,0.0,99,0.00,,,0.00,Wunderground v.1.15,2013-07-09 12:30:00,
2013-07-09 08:35:00,68.9,68.6,30.08,SSE,159,0.0,0.0,99,0.00,,,0.00,Wunderground v.1.15,2013-07-09 12:35:00,
2013-07-09 08:40:00,69.1,68.8,30.08,SSE,159,0.0,0.0,99,0.00,,,0.00,Wunderground v.1.15,2013-07-09 12:40:00,
2013-07-09 08:45:00,69.2,68.9,30.07,SSE,159,0.0,0.0,99,0.00,,,0.00,Wunderground v.1.15,2013-07-09 12:45:00,
2013-07-09 08:50:00,69.5,69.2,30.08,SSE,159,0.0,0.0,99,0.00,,,0.00,Wunderground v.1.15,2013-07-09 12:50:00,
2013-07-09 08:55:00,69.7,69.4,30.08,SSE,159,0.0,0.0,99,0.00,,,0.00,Wunderground v.1.15,2013-07-09 12:55:00,
2013-07-09 09:00:00,69.9,69.6,30.08,SSE,159,0.0,0.0,99,0.00,,,0.00,Wunderground v.1.15,2013-07-09 13:00:00,
2013-07-09 09:05:00,70.3,70.0,30.07,SSE,159,0.0,0.0,99,0.00,,,0.00,Wunderground v.1.15,2013-07-09 13:05:00,
2013-07-09 09:10:00,70.6,70.3,30.07,SSE,159,0.0,0.0,99,0.00,,,0.00,Wunderground v.1.15,2013-07-09 13:10:00,
2013-07-09 09:20:00,70.8,70.5,30.08,SSE,160,0.0,0.0,99,0.00,,,0.00,Wunderground v.1.15,2013-07-09 13:20:00,
2013-07-09 09:25:00,70.9,70.6,30.08,SSE,160,0.0,0.0,99,0.00,,,0.00,Wunderground v.1.15,2013-07-09 13:25:00,
2013-07-09 09:30:00,71.0,70.7,30.08,SSE,160,0.0,0.0,99,0.00,,,0.00,Wunderground v.1.15,2013-07-09 13:30:00,
2013-07-09 09:35:00,71.2,70.9,30.08,SSE,160,0.0,0.0,99,0.00,,,0.00,Wunderground v.1.15,2013-07-09 13:35:00,
2013-07-09 09:45:00,72.0,71.4,30.08,SSE,161,0.0,0.0,98,0.00,,,0.00,Wunderground v.1.15,2013-07-09 13:45:00,
2013-07-09 09:50:00,72.4,71.5,30.07,SSE,161,0.0,0.0,97,0.00,,,0.00,Wunderground v.1.15,2013-07-09 13:50:00,
2013-07-09 09:55:00,72.5,71.3,30.07,South,175,0.0,0.0,96,0.00,,,0.00,Wunderground v.1.15,2013-07-09 13:55:00,
2013-07-09 10:00:00,72.7,71.2,30.07,South,175,0.0,0.0,95,0.00,,,0.00,Wunderground v.1.15,2013-07-09 14:00:00,
2013-07-09 10:06:00,73.0,71.5,30.08,South,175,0.0,0.0,95,0.00,,,0.00,Wunderground v.1.15,2013-07-09 14:06:00,
2013-07-09 10:10:00,73.3,71.8,30.08,South,175,0.0,0.0,95,0.00,,,0.00,Wunderground v.1.15,2013-07-09 14:10:00,
2013-07-09 10:15:00,73.6,72.1,30.08,South,175,0.0,0.0,95,0.00,,,0.00,Wunderground v.1.15,2013-07-09 14:15:00,
2013-07-09 10:20:00,73.8,72.0,30.08,South,175,0.0,0.0,94,0.00,,,0.00,Wunderground v.1.15,2013-07-09 14:20:00,
2013-07-09 10:25:00,74.0,71.8,30.08,South,175,0.0,0.0,93,0.00,,,0.00,Wunderground v.1.15,2013-07-09 14:25:00,
2013-07-09 10:30:00,74.2,72.0,30.08,South,175,0.0,0.0,93,0.00,,,0.00,Wunderground v.1.15,2013-07-09 14:30:00,
2013-07-09 10:35:00,74.5,72.3,30.08,South,175,0.0,0.0,93,0.00,,,0.00,Wunderground v.1.15,2013-07-09 14:35:00,
2013-07-09 10:40:00,74.8,72.3,30.08,South,175,0.0,0.0,92,0.00,,,0.00,Wunderground v.1.15,2013-07-09 14:40:00,
2013-07-09 10:45:00,75.1,72.3,30.08,South,175,0.0,0.0,91,0.00,,,0.00,Wunderground v.1.15,2013-07-09 14:45:00,
2013-07-09 10:50:00,75.3,71.8,30.08,South,175,0.0,0.0,89,0.00,,,0.00,Wunderground v.1.15,2013-07-09 14:50:00,
2013-07-09 10:55:00,75.5,72.4,30.08,South,175,0.0,0.0,90,0.00,,,0.00,Wunderground v.1.15,2013-07-09 14:55:00,
2013-07-09 11:00:00,75.9,72.8,30.08,South,179,0.0,0.0,90,0.00,,,0.00,Wunderground v.1.15,2013-07-09 15:00:00,
2013-07-09 11:06:00,76.6,72.8,30.07,South,183,0.0,1.0,88,0.00,,,0.00,Wunderground v.1.15,2013-07-09 15:06:00,
2013-07-09 11:15:00,77.1,72.6,30.07,South,183,0.0,0.0,86,0.00,,,0.00,Wunderground v.1.15,2013-07-09 15:15:00,
2013-07-09 11:20:00,77.3,72.8,30.08,South,183,0.0,0.0,86,0.00,,,0.00,Wunderground v.1.15,2013-07-09 15:20:00,
2013-07-09 11:25:00,77.6,72.7,30.07,South,183,0.0,0.0,85,0.00,,,0.00,Wunderground v.1.15,2013-07-09 15:25:00,
2013-07-09 11:30:00,77.8,72.9,30.07,South,183,0.0,0.0,85,0.00,,,0.00,Wunderground v.1.15,2013-07-09 15:30:00,
2013-07-09 11:35:00,78.0,73.5,30.07,South,183,0.0,0.0,86,0.00,,,0.00,Wunderground v.1.15,2013-07-09 15:35:00,
2013-07-09 11:40:00,78.0,73.8,30.07,South,183,0.0,0.0,87,0.00,,,0.00,Wunderground v.1.15,2013-07-09 15:40:00,
2013-07-09 11:45:00,78.1,73.9,30.07,South,183,0.0,0.0,87,0.00,,,0.00,Wunderground v.1.15,2013-07-09 15:45:00,
2013-07-09 11:50:00,78.5,74.3,30.07,South,183,0.0,0.0,87,0.00,,,0.00,Wunderground v.1.15,2013-07-09 15:50:00,
2013-07-09 11:55:00,78.7,72.7,30.07,South,183,0.0,0.0,82,0.00,,,0.00,Wunderground v.1.15,2013-07-09 15:55:00,
2013-07-09 12:00:00,79.4,73.8,30.07,South,182,0.0,0.0,83,0.00,,,0.00,Wunderground v.1.15,2013-07-09 16:00:00,
2013-07-09 12:05:00,80.4,74.4,30.07,SSW,192,0.0,0.0,82,0.00,,,0.00,Wunderground v.1.15,2013-07-09 16:05:00,
2013-07-09 12:10:00,81.1,74.7,30.07,SSW,194,0.0,0.0,81,0.00,,,0.00,Wunderground v.1.15,2013-07-09 16:10:00,
2013-07-09 12:15:00,82.1,76.1,30.07,SSW,195,0.0,0.0,82,0.00,,,0.00,Wunderground v.1.15,2013-07-09 16:15:00,
2013-07-09 12:20:00,82.6,75.0,30.07,SW,214,0.0,0.0,78,0.00,,,0.00,Wunderground v.1.15,2013-07-09 16:20:00,
2013-07-09 12:25:00,83.0,75.0,30.07,SW,215,0.0,0.0,77,0.00,,,0.00,Wunderground v.1.15,2013-07-09 16:25:00,
2013-07-09 12:30:00,83.3,76.1,30.07,SW,214,0.0,0.0,79,0.00,,,0.00,Wunderground v.1.15,2013-07-09 16:30:00,
2013-07-09 12:35:00,83.8,75.8,30.07,SW,215,0.0,0.0,77,0.00,,,0.00,Wunderground v.1.15,2013-07-09 16:35:00,
2013-07-09 12:40:00,84.0,74.4,30.07,SW,215,0.0,0.0,73,0.00,,,0.00,Wunderground v.1.15,2013-07-09 16:40:00,
2013-07-09 12:45:00,84.1,75.7,30.06,SW,214,0.0,0.0,76,0.00,,,0.00,Wunderground v.1.15,2013-07-09 16:45:00,
2013-07-09 12:50:00,83.8,75.0,30.06,SW,215,0.0,0.0,75,0.00,,,0.00,Wunderground v.1.15,2013-07-09 16:50:00,
2013-07-09 12:55:00,83.4,74.6,30.06,SW,215,0.0,0.0,75,0.00,,,0.00,Wunderground v.1.15,2013-07-09 16:55:00,
2013-07-09 13:00:00,83.0,74.3,30.06,SW,215,0.0,0.0,75,0.00,,,0.00,Wunderground v.1.15,2013-07-09 17:00:00,
2013-07-09 13:05:00,82.5,74.2,30.06,SW,215,0.0,0.0,76,0.00,,,0.00,Wunderground v.1.15,2013-07-09 17:05:00,
2013-07-09 13:10:00,82.5,76.8,30.06,SW,215,0.0,0.0,83,0.00,,,0.00,Wunderground v.1.15,2013-07-09 17:10:00,
2013-07-09 13:15:00,83.0,76.6,30.06,SW,214,0.0,0.0,81,0.00,,,0.00,Wunderground v.1.15,2013-07-09 17:15:00,
2013-07-09 13:20:00,84.0,75.6,30.05,SW,215,0.0,0.0,76,0.00,,,0.00,Wunderground v.1.15,2013-07-09 17:20:00,
2013-07-09 13:25:00,84.9,76.5,30.05,SW,215,0.0,0.0,76,0.00,,,0.00,Wunderground v.1.15,2013-07-09 17:25:00,
2013-07-09 13:30:00,85.6,76.8,30.05,SW,215,0.0,0.0,75,0.00,,,0.00,Wunderground v.1.15,2013-07-09 17:30:00,
2013-07-09 13:35:00,86.1,76.8,30.04,SW,215,0.0,0.0,74,0.00,,,0.00,Wunderground v.1.15,2013-07-09 17:35:00,
2013-07-09 13:40:00,86.7,77.8,30.04,SW,215,0.0,0.0,75,0.00,,,0.00,Wunderground v.1.15,2013-07-09 17:40:00,
2013-07-09 13:45:00,87.5,78.6,30.04,SW,215,0.0,0.0,75,0.00,,,0.00,Wunderground v.1.15,2013-07-09 17:45:00,
2013-07-09 13:50:00,88.3,75.9,30.04,SW,223,0.0,0.0,67,0.00,,,0.00,Wunderground v.1.15,2013-07-09 17:50:00,
2013-07-09 13:55:00,88.5,74.8,30.04,WSW,237,0.0,1.0,64,0.00,,,0.00,Wunderground v.1.15,2013-07-09 17:55:00,
2013-07-09 14:00:00,88.6,75.8,30.03,WSW,237,0.0,0.0,66,0.00,,,0.00,Wunderground v.1.15,2013-07-09 18:00:00,
2013-07-09 14:06:00,88.3,75.0,30.03,WSW,238,0.0,2.0,65,0.00,,,0.00,Wunderground v.1.15,2013-07-09 18:06:00,
2013-07-09 14:10:00,87.9,75.6,30.03,WSW,240,0.0,0.0,67,0.00,,,0.00,Wunderground v.1.15,2013-07-09 18:10:00,
2013-07-09 14:15:00,87.7,74.9,30.03,WSW,242,0.0,0.0,66,0.00,,,0.00,Wunderground v.1.15,2013-07-09 18:15:00,
2013-07-09 14:20:00,87.9,77.3,30.03,WSW,242,0.0,0.0,71,0.00,,,0.00,Wunderground v.1.15,2013-07-09 18:20:00,
2013-07-09 14:25:00,88.2,74.5,30.03,WSW,243,0.0,0.0,64,0.00,,,0.00,Wunderground v.1.15,2013-07-09 18:25:00,
2013-07-09 14:30:00,88.0,75.7,30.02,West,260,0.0,0.0,67,0.00,,,0.00,Wunderground v.1.15,2013-07-09 18:30:00,
2013-07-09 14:35:00,88.2,78.0,30.02,West,260,0.0,0.0,72,0.00,,,0.00,Wunderground v.1.15,2013-07-09 18:35:00,
2013-07-09 14:40:00,88.2,74.0,30.02,West,260,0.0,0.0,63,0.00,,,0.00,Wunderground v.1.15,2013-07-09 18:40:00,
2013-07-09 14:45:00,88.1,73.4,30.02,West,260,0.0,2.0,62,0.00,,,0.00,Wunderground v.1.15,2013-07-09 18:45:00,
2013-07-09 14:50:00,87.5,76.5,30.02,West,259,0.0,0.0,70,0.00,,,0.00,Wunderground v.1.15,2013-07-09 18:50:00,
2013-07-09 14:55:00,87.4,75.5,30.01,West,270,0.0,0.0,68,0.00,,,0.00,Wunderground v.1.15,2013-07-09 18:55:00,
2013-07-09 15:00:00,87.8,75.5,30.01,West,269,0.0,0.0,67,0.00,,,0.00,Wunderground v.1.15,2013-07-09 19:00:00,
2013-07-09 15:05:00,88.5,77.5,30.01,West,269,0.0,0.0,70,0.00,,,0.00,Wunderground v.1.15,2013-07-09 19:05:00,
2013-07-09 15:10:00,89.0,73.8,30.01,WSW,253,0.0,0.0,61,0.00,,,0.00,Wunderground v.1.15,2013-07-09 19:10:00,
2013-07-09 15:15:00,89.1,75.8,30.00,WNW,296,1.0,1.0,65,0.00,,,0.00,Wunderground v.1.15,2013-07-09 19:15:00,
2013-07-09 15:20:00,88.8,75.5,30.00,WNW,292,0.0,0.0,65,0.00,,,0.00,Wunderground v.1.15,2013-07-09 19:20:00,
2013-07-09 15:25:00,88.2,74.0,30.00,WNW,290,0.0,0.0,63,0.00,,,0.00,Wunderground v.1.15,2013-07-09 19:25:00,
2013-07-09 15:30:00,87.4,75.1,30.00,WNW,290,0.0,0.0,67,0.00,,,0.00,Wunderground v.1.15,2013-07-09 19:30:00,
2013-07-09 15:35:00,86.5,75.5,30.00,WNW,290,0.0,0.0,70,0.00,,,0.00,Wunderground v.1.15,2013-07-09 19:35:00,
2013-07-09 15:45:00,85.0,75.0,29.99,WNW,290,0.0,0.0,72,0.00,,,0.00,Wunderground v.1.15,2013-07-09 19:45:00,
2013-07-09 15:50:00,84.6,75.0,29.99,WNW,290,0.0,0.0,73,0.00,,,0.00,Wunderground v.1.15,2013-07-09 19:50:00,
2013-07-09 15:55:00,84.2,74.6,29.99,WNW,290,0.0,0.0,73,0.00,,,0.00,Wunderground v.1.15,2013-07-09 19:55:00,
2013-07-09 16:00:00,83.8,75.8,29.99,WNW,290,0.0,0.0,77,0.00,,,0.00,Wunderground v.1.15,2013-07-09 20:00:00,
2013-07-09 16:05:00,83.4,75.4,29.99,WNW,290,0.0,0.0,77,0.00,,,0.00,Wunderground v.1.15,2013-07-09 20:05:00,
2013-07-09 16:10:00,83.2,75.6,29.98,WNW,290,0.0,0.0,78,0.00,,,0.00,Wunderground v.1.15,2013-07-09 20:10:00,
2013-07-09 16:15:00,82.8,75.2,29.98,WNW,290,0.0,0.0,78,0.00,,,0.00,Wunderground v.1.15,2013-07-09 20:15:00,
2013-07-09 16:20:00,82.7,75.9,29.98,WNW,290,0.0,0.0,80,0.00,,,0.00,Wunderground v.1.15,2013-07-09 20:20:00,
2013-07-09 16:25:00,82.5,75.3,29.97,WNW,290,0.0,0.0,79,0.00,,,0.00,Wunderground v.1.15,2013-07-09 20:25:00,
2013-07-09 16:30:00,82.3,75.1,29.98,WNW,290,0.0,0.0,79,0.00,,,0.00,Wunderground v.1.15,2013-07-09 20:30:00,
2013-07-09 16:35:00,82.2,74.3,29.98,WNW,290,0.0,0.0,77,0.00,,,0.00,Wunderground v.1.15,2013-07-09 20:35:00,
2013-07-09 16:40:00,81.8,73.5,29.99,SW,219,0.0,0.0,76,0.00,,,0.00,Wunderground v.1.15,2013-07-09 20:40:00,
2013-07-09 16:45:00,81.8,73.5,29.98,SW,219,0.0,0.0,76,0.00,,,0.00,Wunderground v.1.15,2013-07-09 20:45:00,
2013-07-09 16:50:00,81.5,73.2,29.98,SW,217,0.0,0.0,76,0.00,,,0.00,Wunderground v.1.15,2013-07-09 20:50:00,
2013-07-09 16:55:00,80.8,73.7,29.98,SSW,195,0.0,0.0,79,0.00,,,0.00,Wunderground v.1.15,2013-07-09 20:55:00,
2013-07-09 17:00:00,80.2,73.8,29.98,SSW,195,0.0,0.0,81,0.00,,,0.00,Wunderground v.1.15,2013-07-09 21:00:00,
2013-07-09 17:06:00,79.0,72.7,29.98,SE,141,0.0,1.0,81,0.00,,,0.00,Wunderground v.1.15,2013-07-09 21:06:00,
2013-07-09 17:10:00,78.3,72.7,29.98,SE,144,0.0,0.0,83,0.00,,,0.00,Wunderground v.1.15,2013-07-09 21:10:00,
2013-07-09 17:15:00,77.2,71.6,29.99,SE,140,0.0,1.0,83,0.00,,,0.00,Wunderground v.1.15,2013-07-09 21:15:00,
2013-07-09 17:20:00,76.1,71.3,29.99,SE,142,1.0,1.0,85,0.00,,,0.00,Wunderground v.1.15,2013-07-09 21:20:00,
2013-07-09 17:25:00,75.1,71.6,29.99,ESE,111,1.0,1.0,89,0.00,,,0.01,Wunderground v.1.15,2013-07-09 21:25:00,
2013-07-09 17:35:00,72.7,68.6,30.00,ESE,117,1.0,2.0,87,0.17,,,0.04,Wunderground v.1.15,2013-07-09 21:35:00,
2013-07-09 17:45:00,71.0,68.2,29.99,ESE,118,0.0,1.0,91,0.04,,,0.04,Wunderground v.1.15,2013-07-09 21:45:00,
2013-07-09 17:50:00,70.4,68.0,29.99,ESE,119,0.0,0.0,92,0.00,,,0.04,Wunderground v.1.15,2013-07-09 21:50:00,
2013-07-09 17:55:00,70.4,68.9,30.00,ESE,119,0.0,0.0,95,0.00,,,0.04,Wunderground v.1.15,2013-07-09 21:55:00,
2013-07-09 18:00:00,70.7,69.2,30.01,ESE,118,0.0,0.0,95,0.00,,,0.04,Wunderground v.1.15,2013-07-09 22:00:00,
2013-07-09 18:05:00,71.1,69.9,30.01,ESE,119,0.0,0.0,96,0.00,,,0.04,Wunderground v.1.15,2013-07-09 22:05:00,
2013-07-09 18:10:00,71.3,70.1,30.01,ESE,111,1.0,1.0,96,0.00,,,0.04,Wunderground v.1.15,2013-07-09 22:10:00,
2013-07-09 18:15:00,71.5,70.3,30.00,ESE,111,1.0,1.0,96,0.00,,,0.04,Wunderground v.1.15,2013-07-09 22:15:00,
2013-07-09 18:20:00,71.8,70.9,29.99,ESE,111,0.0,0.0,97,0.00,,,0.04,Wunderground v.1.15,2013-07-09 22:20:00,
2013-07-09 18:25:00,72.1,71.2,30.00,ESE,111,0.0,0.0,97,0.00,,,0.04,Wunderground v.1.15,2013-07-09 22:25:00,
2013-07-09 18:30:00,72.1,70.9,30.00,ESE,116,1.0,1.0,96,0.00,,,0.04,Wunderground v.1.15,2013-07-09 22:30:00,
2013-07-09 18:35:00,72.2,71.0,30.00,ESE,116,1.0,1.0,96,0.00,,,0.04,Wunderground v.1.15,2013-07-09 22:35:00,
2013-07-09 18:40:00,72.1,70.6,30.00,ESE,119,1.0,1.0,95,0.00,,,0.04,Wunderground v.1.15,2013-07-09 22:40:00,
2013-07-09 18:45:00,72.3,71.4,30.00,ESE,118,1.0,1.0,97,0.00,,,0.04,Wunderground v.1.15,2013-07-09 22:45:00,
2013-07-09 18:50:00,72.3,71.4,30.00,ESE,118,0.0,0.0,97,0.00,,,0.04,Wunderground v.1.15,2013-07-09 22:50:00,
2013-07-09 18:55:00,72.3,71.1,30.00,ESE,118,0.0,0.0,96,0.00,,,0.04,Wunderground v.1.15,2013-07-09 22:55:00,
2013-07-09 19:00:00,72.4,71.2,30.00,ESE,119,0.0,0.0,96,0.00,,,0.04,Wunderground v.1.15,2013-07-09 23:00:00,
2013-07-09 19:05:00,72.4,71.2,30.00,ESE,118,0.0,0.0,96,0.00,,,0.04,Wunderground v.1.15,2013-07-09 23:05:00,
2013-07-09 19:10:00,72.4,71.2,30.00,ESE,119,0.0,0.0,96,0.00,,,0.04,Wunderground v.1.15,2013-07-09 23:10:00,
2013-07-09 19:15:00,72.4,71.5,29.98,ESE,118,0.0,0.0,97,0.00,,,0.04,Wunderground v.1.15,2013-07-09 23:15:00,
2013-07-09 19:20:00,72.4,71.5,29.99,ESE,119,0.0,0.0,97,0.00,,,0.04,Wunderground v.1.15,2013-07-09 23:20:00,
2013-07-09 19:30:00,72.1,70.9,29.98,ESE,118,0.0,0.0,96,0.00,,,0.04,Wunderground v.1.15,2013-07-09 23:30:00,
2013-07-09 19:35:00,72.1,70.9,29.98,ESE,119,0.0,0.0,96,0.00,,,0.04,Wunderground v.1.15,2013-07-09 23:35:00,
2013-07-09 19:40:00,72.1,70.9,29.99,ESE,119,0.0,0.0,96,0.00,,,0.04,Wunderground v.1.15,2013-07-09 23:40:00,
2013-07-09 19:45:00,72.1,70.9,29.99,ESE,118,0.0,0.0,96,0.00,,,0.04,Wunderground v.1.15,2013-07-09 23:45:00,
2013-07-09 19:50:00,72.0,70.8,29.99,ESE,119,0.0,0.0,96,0.00,,,0.04,Wunderground v.1.15,2013-07-09 23:50:00,
2013-07-09 19:55:00,72.0,70.8,29.99,ESE,118,0.0,0.0,96,0.00,,,0.04,Wunderground v.1.15,2013-07-09 23:55:00,
2013-07-09 20:00:00,72.0,71.1,30.00,ESE,118,0.0,0.0,97,0.00,,,0.04,Wunderground v.1.15,2013-07-10 00:00:00,
2013-07-09 20:06:00,72.0,71.1,30.00,ESE,119,0.0,0.0,97,0.00,,,0.04,Wunderground v.1.15,2013-07-10 00:06:00,
2013-07-09 20:10:00,71.8,70.6,30.01,ESE,119,0.0,0.0,96,0.00,,,0.04,Wunderground v.1.15,2013-07-10 00:10:00,
2013-07-09 20:15:00,71.6,70.4,30.01,ESE,119,0.0,0.0,96,0.00,,,0.04,Wunderground v.1.15,2013-07-10 00:15:00,
2013-07-09 20:20:00,71.4,70.2,30.01,ESE,119,0.0,0.0,96,0.00,,,0.04,Wunderground v.1.15,2013-07-10 00:20:00,
2013-07-09 20:25:00,71.3,70.1,30.01,ESE,118,0.0,0.0,96,0.00,,,0.04,Wunderground v.1.15,2013-07-10 00:25:00,
2013-07-09 20:30:00,71.2,70.0,30.01,ESE,118,0.0,0.0,96,0.00,,,0.04,Wunderground v.1.15,2013-07-10 00:30:00,
2013-07-09 20:35:00,71.1,70.2,30.01,ESE,118,0.0,0.0,97,0.00,,,0.04,Wunderground v.1.15,2013-07-10 00:35:00,
2013-07-09 20:40:00,71.0,70.1,30.00,ESE,119,0.0,0.0,97,0.00,,,0.04,Wunderground v.1.15,2013-07-10 00:40:00,
2013-07-09 20:45:00,70.9,70.0,30.02,ESE,118,0.0,0.0,97,0.00,,,0.04,Wunderground v.1.15,2013-07-10 00:45:00,
2013-07-09 20:50:00,70.9,70.0,30.02,ESE,119,0.0,0.0,97,0.00,,,0.04,Wunderground v.1.15,2013-07-10 00:50:00,
2013-07-09 20:55:00,70.7,69.5,30.02,ESE,119,0.0,0.0,96,0.00,,,0.04,Wunderground v.1.15,2013-07-10 00:55:00,
2013-07-09 21:00:00,70.6,69.7,30.02,ESE,119,0.0,0.0,97,0.00,,,0.04,Wunderground v.1.15,2013-07-10 01:00:00,
2013-07-09 21:05:00,70.4,69.5,30.01,ESE,118,0.0,0.0,97,0.00,,,0.04,Wunderground v.1.15,2013-07-10 01:05:00,
2013-07-09 21:10:00,70.3,69.4,30.02,ESE,118,0.0,0.0,97,0.00,,,0.04,Wunderground v.1.15,2013-07-10 01:10:00,
2013-07-09 21:20:00,70.1,69.2,30.02,ESE,119,0.0,0.0,97,0.00,,,0.04,Wunderground v.1.15,2013-07-10 01:20:00,
2013-07-09 21:25:00,70.0,69.1,30.02,ESE,119,0.0,0.0,97,0.00,,,0.04,Wunderground v.1.15,2013-07-10 01:25:00,
2013-07-09 21:30:00,69.9,69.0,30.02,ESE,118,0.0,0.0,97,0.00,,,0.04,Wunderground v.1.15,2013-07-10 01:30:00,
2013-07-09 21:35:00,69.8,68.9,30.02,ESE,119,0.0,0.0,97,0.00,,,0.04,Wunderground v.1.15,2013-07-10 01:35:00,
2013-07-09 21:40:00,69.8,68.9,30.02,ESE,118,0.0,0.0,97,0.00,,,0.04,Wunderground v.1.15,2013-07-10 01:40:00,
2013-07-09 21:45:00,69.8,68.9,30.02,ESE,119,0.0,0.0,97,0.00,,,0.04,Wunderground v.1.15,2013-07-10 01:45:00,
2013-07-09 21:50:00,69.8,68.9,30.03,ESE,119,0.0,0.0,97,0.00,,,0.05,Wunderground v.1.15,2013-07-10 01:50:00,
2013-07-09 21:55:00,69.8,69.2,30.03,ESE,118,0.0,0.0,98,0.11,,,0.06,Wunderground v.1.15,2013-07-10 01:55:00,
2013-07-09 22:00:00,69.9,69.3,30.02,ESE,119,0.0,0.0,98,0.27,,,0.07,Wunderground v.1.15,2013-07-10 02:00:00,
2013-07-09 22:06:00,69.9,69.3,30.01,ESE,119,0.0,0.0,98,0.11,,,0.08,Wunderground v.1.15,2013-07-10 02:06:00,
2013-07-09 22:10:00,69.9,69.3,30.01,ESE,118,0.0,0.0,98,0.06,,,0.08,Wunderground v.1.15,2013-07-10 02:10:00,
2013-07-09 22:15:00,69.8,69.2,30.01,ESE,119,0.0,0.0,98,0.05,,,0.09,Wunderground v.1.15,2013-07-10 02:15:00,
2013-07-09 22:20:00,69.8,69.2,30.02,ESE,119,0.0,0.0,98,0.09,,,0.10,Wunderground v.1.15,2013-07-10 02:20:00,
2013-07-09 22:25:00,69.7,69.1,30.02,ESE,118,0.0,0.0,98,0.09,,,0.10,Wunderground v.1.15,2013-07-10 02:25:00,
2013-07-09 22:30:00,69.7,69.1,30.02,ESE,118,0.0,0.0,98,0.05,,,0.10,Wunderground v.1.15,2013-07-10 02:30:00,
2013-07-09 22:35:00,69.7,69.1,30.03,ESE,119,0.0,0.0,98,0.04,,,0.10,Wunderground v.1.15,2013-07-10 02:35:00,
2013-07-09 22:40:00,69.6,69.0,30.03,ESE,119,0.0,0.0,98,0.00,,,0.10,Wunderground v.1.15,2013-07-10 02:40:00,
2013-07-09 22:45:00,69.5,68.9,30.03,ESE,118,0.0,0.0,98,0.00,,,0.10,Wunderground v.1.15,2013-07-10 02:45:00,
2013-07-09 22:50:00,69.4,68.8,30.02,ESE,119,0.0,0.0,98,0.00,,,0.10,Wunderground v.1.15,2013-07-10 02:50:00,
2013-07-09 22:55:00,69.4,68.8,30.02,ESE,118,0.0,1.0,98,0.00,,,0.10,Wunderground v.1.15,2013-07-10 02:55:00,
2013-07-09 23:00:00,69.4,68.8,30.02,ESE,118,0.0,0.0,98,0.00,,,0.10,Wunderground v.1.15,2013-07-10 03:00:00,
2013-07-09 23:05:00,69.4,68.8,30.02,ESE,118,1.0,1.0,98,0.00,,,0.10,Wunderground v.1.15,2013-07-10 03:05:00,
2013-07-09 23:10:00,69.4,68.8,30.02,ESE,118,1.0,1.0,98,0.00,,,0.10,Wunderground v.1.15,2013-07-10 03:10:00,
2013-07-09 23:15:00,69.3,68.7,30.02,ESE,118,0.0,1.0,98,0.00,,,0.10,Wunderground v.1.15,2013-07-10 03:15:00,
2013-07-09 23:20:00,69.4,68.8,30.02,ESE,119,0.0,0.0,98,0.00,,,0.10,Wunderground v.1.15,2013-07-10 03:20:00,
2013-07-09 23:25:00,69.4,68.8,30.02,ESE,119,0.0,0.0,98,0.00,,,0.10,Wunderground v.1.15,2013-07-10 03:25:00,
2013-07-09 23:30:00,69.3,68.7,30.02,ESE,118,0.0,0.0,98,0.00,,,0.10,Wunderground v.1.15,2013-07-10 03:30:00,
2013-07-09 23:35:00,69.3,68.7,30.02,ESE,119,0.0,0.0,98,0.00,,,0.10,Wunderground v.1.15,2013-07-10 03:35:00,
2013-07-09 23:40:00,69.2,68.6,30.02,ESE,118,0.0,0.0,98,0.00,,,0.10,Wunderground v.1.15,2013-07-10 03:40:00,
2013-07-09 23:45:00,69.2,68.6,30.02,ESE,118,0.0,0.0,98,0.00,,,0.10,Wunderground v.1.15,2013-07-10 03:45:00,
2013-07-09 23:50:00,69.1,68.5,30.02,ESE,118,0.0,0.0,98,0.00,,,0.10,Wunderground v.1.15,2013-07-10 03:50:00,
2013-07-09 23:55:00,68.9,68.3,30.03,ESE,118,0.0,0.0,98,0.00,,,0.10,Wunderground v.1.15,2013-07-10 03:55:00,